<?xml version='1.0' encoding='UTF-8'?><gpx version="1.1" creator="JPX - https://github.com/jenetics/jpx" xmlns="http://www.topografix.com/GPX/1/1"><trk><trkseg><trkpt lat="46.04410548070347" lon="10.021597957461365"><ele>969.857142857143</ele><time>2026-04-06T09:29:57.001Z</time></trkpt><trkpt lat="46.04417038732066" lon="10.021616619067238"><ele>969.7142857142858</ele><time>2026-04-06T09:30:04.001Z</time></trkpt><trkpt lat="46.04423576722141" lon="10.02163367534588"><ele>969.5714285714286</ele><time>2026-04-06T09:30:09.001Z</time></trkpt><trkpt lat="46.04429715073379" lon="10.021674180520197"><ele>969.4285714285714</ele><time>2026-04-06T09:30:15.001Z</time></trkpt><trkpt lat="46.04436285958899" lon="10.021709753210509"><ele>969.2857142857142</ele><time>2026-04-06T09:30:20.001Z</time></trkpt><trkpt lat="46.04444260075572" lon="10.02172709402457"><ele>969.142857142857</ele><time>2026-04-06T09:30:26.001Z</time></trkpt><trkpt lat="46.04451068167065" lon="10.021756288102246"><ele>968.9999999999999</ele><time>2026-04-06T09:30:32.001Z</time></trkpt><trkpt lat="46.04457517691599" lon="10.021772667826525"><ele>968.9999999999999</ele><time>2026-04-06T09:30:37Z</time></trkpt><trkpt lat="46.04464995531563" lon="10.021781484279552"><ele>969.0</ele><time>2026-04-06T09:30:42Z</time></trkpt><trkpt lat="46.044715452931214" lon="10.021810479505682"><ele>968.9999999999999</ele><time>2026-04-06T09:30:48Z</time></trkpt><trkpt lat="46.044782337311865" lon="10.021828726462699"><ele>968.9999999999999</ele><time>2026-04-06T09:30:53Z</time></trkpt><trkpt lat="46.04485749399338" lon="10.021845281847094"><ele>969.0</ele><time>2026-04-06T09:30:59Z</time></trkpt><trkpt lat="46.04492747655866" lon="10.021865729214037"><ele>968.9999999999999</ele><time>2026-04-06T09:31:05Z</time></trkpt><trkpt lat="46.04499016172925" lon="10.021887148156575"><ele>968.9999999999999</ele><time>2026-04-06T09:31:10Z</time></trkpt><trkpt lat="46.04505520013674" lon="10.021911421931527"><ele>967.142857142857</ele><time>2026-04-06T09:31:16Z</time></trkpt><trkpt lat="46.045119888447495" lon="10.021934776557348"><ele>965.2857142857142</ele><time>2026-04-06T09:31:21Z</time></trkpt><trkpt lat="46.045185523555205" lon="10.0219688709132"><ele>963.4285714285714</ele><time>2026-04-06T09:31:27Z</time></trkpt><trkpt lat="46.045252025728665" lon="10.021995860065374"><ele>961.5714285714286</ele><time>2026-04-06T09:31:33Z</time></trkpt><trkpt lat="46.045332160583385" lon="10.02203564783154"><ele>959.7142857142858</ele><time>2026-04-06T09:31:39Z</time></trkpt><trkpt lat="46.04539571066751" lon="10.022084533177361"><ele>957.857142857143</ele><time>2026-04-06T09:31:45Z</time></trkpt><trkpt lat="46.04545775759523" lon="10.022112413476613"><ele>956.0000000000001</ele><time>2026-04-06T09:31:50Z</time></trkpt><trkpt lat="46.04552190049151" lon="10.022134197554582"><ele>956.0000000000001</ele><time>2026-04-06T09:31:55.001Z</time></trkpt><trkpt lat="46.04558685624176" lon="10.022147531735774"><ele>956.0</ele><time>2026-04-06T09:32:00.001Z</time></trkpt><trkpt lat="46.04564777263005" lon="10.02217427405711"><ele>956.0000000000001</ele><time>2026-04-06T09:32:05.001Z</time></trkpt><trkpt lat="46.0457203331992" lon="10.02219602973788"><ele>956.0000000000001</ele><time>2026-04-06T09:32:11.001Z</time></trkpt><trkpt lat="46.04578829305374" lon="10.022227218676038"><ele>956.0</ele><time>2026-04-06T09:32:17.001Z</time></trkpt><trkpt lat="46.045861638473326" lon="10.022242333120309"><ele>956.0000000000001</ele><time>2026-04-06T09:32:24.001Z</time></trkpt><trkpt lat="46.04592053589603" lon="10.02227471659451"><ele>956.0000000000001</ele><time>2026-04-06T09:32:31.001Z</time></trkpt><trkpt lat="46.045981243438995" lon="10.022307530741758"><ele>955.5714285714287</ele><time>2026-04-06T09:32:37.001Z</time></trkpt><trkpt lat="46.04603672246893" lon="10.022360311986631"><ele>955.1428571428571</ele><time>2026-04-06T09:32:43Z</time></trkpt><trkpt lat="46.04609875101134" lon="10.02238524953629"><ele>954.7142857142858</ele><time>2026-04-06T09:32:52Z</time></trkpt><trkpt lat="46.04614531382094" lon="10.022470616519271"><ele>954.2857142857143</ele><time>2026-04-06T09:33:08Z</time></trkpt><trkpt lat="46.0461697026035" lon="10.022554389176038"><ele>953.8571428571429</ele><time>2026-04-06T09:33:21Z</time></trkpt><trkpt lat="46.0461555026211" lon="10.022653290866728"><ele>953.4285714285714</ele><time>2026-04-06T09:33:32Z</time></trkpt><trkpt lat="46.04616094856999" lon="10.022750866497828"><ele>953.0</ele><time>2026-04-06T09:33:43Z</time></trkpt><trkpt lat="46.046198103475454" lon="10.022826238787554"><ele>954.1428571428571</ele><time>2026-04-06T09:33:54Z</time></trkpt><trkpt lat="46.0461982087583" lon="10.022922419858864"><ele>955.2857142857142</ele><time>2026-04-06T09:34:09.001Z</time></trkpt><trkpt lat="46.04624971437033" lon="10.02297924782575"><ele>956.4285714285713</ele><time>2026-04-06T09:34:17.001Z</time></trkpt><trkpt lat="46.046269009666425" lon="10.023067486182683"><ele>957.5714285714286</ele><time>2026-04-06T09:34:24.001Z</time></trkpt><trkpt lat="46.04627606372306" lon="10.02315978451957"><ele>958.7142857142856</ele><time>2026-04-06T09:34:33.001Z</time></trkpt><trkpt lat="46.046236382907075" lon="10.023236845401897"><ele>959.8571428571428</ele><time>2026-04-06T09:35:20Z</time></trkpt><trkpt lat="46.04618228161359" lon="10.023286483386375"><ele>961.0</ele><time>2026-04-06T09:35:27Z</time></trkpt><trkpt lat="46.046184061082016" lon="10.023377386845775"><ele>962.7142857142857</ele><time>2026-04-06T09:35:40.999Z</time></trkpt><trkpt lat="46.046188745774735" lon="10.023472820160984"><ele>964.4285714285713</ele><time>2026-04-06T09:35:56.999Z</time></trkpt><trkpt lat="46.04616114902871" lon="10.02356630446277"><ele>966.1428571428571</ele><time>2026-04-06T09:36:17Z</time></trkpt><trkpt lat="46.04618000843408" lon="10.02365969900007"><ele>967.8571428571429</ele><time>2026-04-06T09:36:30Z</time></trkpt><trkpt lat="46.04620599393472" lon="10.023746955535739"><ele>969.5714285714286</ele><time>2026-04-06T09:36:43Z</time></trkpt><trkpt lat="46.0461990688165" lon="10.023845142016942"><ele>971.2857142857142</ele><time>2026-04-06T09:41:05.999Z</time></trkpt><trkpt lat="46.046219950735114" lon="10.023945717746507"><ele>973.0</ele><time>2026-04-06T09:41:30.999Z</time></trkpt><trkpt lat="46.04624532890874" lon="10.024039564204918"><ele>973.0</ele><time>2026-04-06T09:41:38.999Z</time></trkpt><trkpt lat="46.04623979024988" lon="10.024137040285943"><ele>973.0</ele><time>2026-04-06T09:41:46.999Z</time></trkpt><trkpt lat="46.04627123506364" lon="10.024215646215177"><ele>973.0</ele><time>2026-04-06T09:41:56.999Z</time></trkpt><trkpt lat="46.04626507028052" lon="10.024307968733464"><ele>973.0</ele><time>2026-04-06T09:42:08.999Z</time></trkpt><trkpt lat="46.04629061227543" lon="10.024391398335402"><ele>973.0</ele><time>2026-04-06T09:42:32Z</time></trkpt><trkpt lat="46.04626071372777" lon="10.024493188003767"><ele>973.0</ele><time>2026-04-06T09:42:45Z</time></trkpt><trkpt lat="46.04633030143865" lon="10.024521384374388"><ele>973.0</ele><time>2026-04-06T09:42:52Z</time></trkpt><trkpt lat="46.046389061225824" lon="10.02455913739287"><ele>974.5714285714286</ele><time>2026-04-06T09:43:01Z</time></trkpt><trkpt lat="46.04644885795849" lon="10.024613087625667"><ele>976.1428571428571</ele><time>2026-04-06T09:43:11.999Z</time></trkpt><trkpt lat="46.04650385166135" lon="10.024659332697086"><ele>977.7142857142858</ele><time>2026-04-06T09:43:19.999Z</time></trkpt><trkpt lat="46.04656071856142" lon="10.024698421809976"><ele>979.2857142857143</ele><time>2026-04-06T09:43:30.999Z</time></trkpt><trkpt lat="46.046606941253444" lon="10.024761266279869"><ele>980.8571428571429</ele><time>2026-04-06T09:43:39.999Z</time></trkpt><trkpt lat="46.04667972921179" lon="10.024816557870457"><ele>982.4285714285716</ele><time>2026-04-06T09:43:52.999Z</time></trkpt><trkpt lat="46.04674325251905" lon="10.02479767682013"><ele>984.0000000000001</ele><time>2026-04-06T09:44:04.999Z</time></trkpt><trkpt lat="46.046725997414114" lon="10.0246700573131"><ele>989.7142857142858</ele><time>2026-04-06T09:44:24.998Z</time></trkpt><trkpt lat="46.04670751604272" lon="10.024578612623321"><ele>995.4285714285714</ele><time>2026-04-06T09:44:36Z</time></trkpt><trkpt lat="46.04677917168698" lon="10.02458639119759"><ele>1001.1428571428571</ele><time>2026-04-06T09:44:47Z</time></trkpt><trkpt lat="46.046838235848455" lon="10.024545664002172"><ele>1006.8571428571429</ele><time>2026-04-06T09:44:56Z</time></trkpt><trkpt lat="46.04682167277007" lon="10.024451267632761"><ele>1012.5714285714284</ele><time>2026-04-06T09:45:07Z</time></trkpt><trkpt lat="46.0468140646255" lon="10.024354198066849"><ele>1018.2857142857142</ele><time>2026-04-06T09:47:24.999Z</time></trkpt><trkpt lat="46.04686417993414" lon="10.024269356499929"><ele>1024.0</ele><time>2026-04-06T09:47:32.999Z</time></trkpt><trkpt lat="46.046938008949304" lon="10.02427418255353"><ele>1024.0</ele><time>2026-04-06T09:47:38.999Z</time></trkpt><trkpt lat="46.046988236714434" lon="10.024336443818974"><ele>1023.9999999999999</ele><time>2026-04-06T09:47:46.999Z</time></trkpt><trkpt lat="46.047058235509745" lon="10.024370479625512"><ele>1024.0</ele><time>2026-04-06T09:47:53.999Z</time></trkpt><trkpt lat="46.04711301854852" lon="10.024415597684818"><ele>1024.0</ele><time>2026-04-06T09:48:02.999Z</time></trkpt><trkpt lat="46.047162815980094" lon="10.024476577162057"><ele>1023.9999999999999</ele><time>2026-04-06T09:48:07.999Z</time></trkpt><trkpt lat="46.047205279689194" lon="10.024568702619517"><ele>1024.0</ele><time>2026-04-06T09:48:15.999Z</time></trkpt><trkpt lat="46.04724389877343" lon="10.024652199653792"><ele>1024.0</ele><time>2026-04-06T09:48:25.998Z</time></trkpt><trkpt lat="46.04729987853728" lon="10.024716494154125"><ele>1024.0</ele><time>2026-04-06T09:48:34.998Z</time></trkpt><trkpt lat="46.047339405266996" lon="10.02481391761744"><ele>1023.9999999999999</ele><time>2026-04-06T09:48:45Z</time></trkpt><trkpt lat="46.04736703124186" lon="10.024896343893628"><ele>1024.0</ele><time>2026-04-06T09:48:51Z</time></trkpt><trkpt lat="46.047391270095424" lon="10.024990457268613"><ele>1024.0</ele><time>2026-04-06T09:49:00Z</time></trkpt><trkpt lat="46.04741180686369" lon="10.025092221063002"><ele>1023.9999999999999</ele><time>2026-04-06T09:49:10Z</time></trkpt><trkpt lat="46.047417364294525" lon="10.025183842453078"><ele>1024.0</ele><time>2026-04-06T09:49:17Z</time></trkpt><trkpt lat="46.04742659299366" lon="10.025274835097381"><ele>1024.0</ele><time>2026-04-06T09:49:27.999Z</time></trkpt><trkpt lat="46.047433435328095" lon="10.025367623220895"><ele>1024.0</ele><time>2026-04-06T09:49:36.999Z</time></trkpt><trkpt lat="46.04745968823678" lon="10.025458043931135"><ele>1023.9999999999999</ele><time>2026-04-06T09:49:50.999Z</time></trkpt><trkpt lat="46.04748617945652" lon="10.025552067035662"><ele>1024.0</ele><time>2026-04-06T09:50:01.999Z</time></trkpt><trkpt lat="46.04748520626212" lon="10.025655202783785"><ele>1024.0</ele><time>2026-04-06T09:50:31.998Z</time></trkpt><trkpt lat="46.04754327261698" lon="10.025604153156738"><ele>1023.9999999999999</ele><time>2026-04-06T09:51:05Z</time></trkpt><trkpt lat="46.047600977505994" lon="10.025566744463232"><ele>1024.0</ele><time>2026-04-06T09:51:18Z</time></trkpt><trkpt lat="46.04764874688579" lon="10.025491957449347"><ele>1024.0</ele><time>2026-04-06T09:51:37.999Z</time></trkpt><trkpt lat="46.04771511074158" lon="10.025456273889722"><ele>1030.5714285714284</ele><time>2026-04-06T09:51:58.999Z</time></trkpt><trkpt lat="46.04778293944833" lon="10.0254465780315"><ele>1037.142857142857</ele><time>2026-04-06T09:52:08.999Z</time></trkpt><trkpt lat="46.04775418878277" lon="10.025527748644786"><ele>1043.7142857142858</ele><time>2026-04-06T09:52:36.999Z</time></trkpt><trkpt lat="46.047797029746484" lon="10.02561239075598"><ele>1050.2857142857142</ele><time>2026-04-06T09:52:52.998Z</time></trkpt><trkpt lat="46.047840737224185" lon="10.025534074363668"><ele>1056.857142857143</ele><time>2026-04-06T09:53:08Z</time></trkpt><trkpt lat="46.04787898286891" lon="10.025610330457447"><ele>1063.4285714285713</ele><time>2026-04-06T09:53:27Z</time></trkpt><trkpt lat="46.04785628022352" lon="10.025700896727015"><ele>1070.0</ele><time>2026-04-06T09:53:39Z</time></trkpt><trkpt lat="46.04781566833156" lon="10.025772475683942"><ele>1070.142857142857</ele><time>2026-04-06T09:53:45.999Z</time></trkpt><trkpt lat="46.047780644944986" lon="10.025860199057458"><ele>1070.2857142857142</ele><time>2026-04-06T09:54:28.999Z</time></trkpt><trkpt lat="46.04782063470497" lon="10.025932076501764"><ele>1070.4285714285716</ele><time>2026-04-06T09:54:49.999Z</time></trkpt><trkpt lat="46.04776257737447" lon="10.025967846695114"><ele>1070.5714285714284</ele><time>2026-04-06T09:55:02Z</time></trkpt><trkpt lat="46.047705595696264" lon="10.026007600715237"><ele>1070.7142857142858</ele><time>2026-04-06T09:56:23.999Z</time></trkpt><trkpt lat="46.04772534855712" lon="10.026097412141775"><ele>1070.857142857143</ele><time>2026-04-06T09:56:39.999Z</time></trkpt><trkpt lat="46.04775455865916" lon="10.026188960876295"><ele>1071.0</ele><time>2026-04-06T09:56:46.999Z</time></trkpt><trkpt lat="46.04779782031031" lon="10.026255482844906"><ele>1071.0</ele><time>2026-04-06T09:56:54.999Z</time></trkpt><trkpt lat="46.04785947298448" lon="10.026293921293211"><ele>1071.0</ele><time>2026-04-06T09:57:06Z</time></trkpt><trkpt lat="46.04793144943413" lon="10.026312492916228"><ele>1071.0</ele><time>2026-04-06T09:57:15Z</time></trkpt><trkpt lat="46.048001767048405" lon="10.02630854889515"><ele>1071.0</ele><time>2026-04-06T09:57:24Z</time></trkpt><trkpt lat="46.048059611246984" lon="10.02636423648095"><ele>1071.0</ele><time>2026-04-06T09:57:32Z</time></trkpt><trkpt lat="46.048117757317065" lon="10.026418040890704"><ele>1071.0</ele><time>2026-04-06T09:57:39Z</time></trkpt><trkpt lat="46.04818411967204" lon="10.026453678278735"><ele>1071.0</ele><time>2026-04-06T09:57:48Z</time></trkpt><trkpt lat="46.04824547440682" lon="10.026500302671185"><ele>1079.857142857143</ele><time>2026-04-06T09:58:15.999Z</time></trkpt><trkpt lat="46.048309747689935" lon="10.026525662766874"><ele>1088.7142857142858</ele><time>2026-04-06T09:58:29.999Z</time></trkpt><trkpt lat="46.04836772064729" lon="10.026581824402756"><ele>1097.5714285714284</ele><time>2026-04-06T09:58:39.999Z</time></trkpt><trkpt lat="46.04839391985876" lon="10.026671724866551"><ele>1106.4285714285716</ele><time>2026-04-06T09:58:48.999Z</time></trkpt><trkpt lat="46.048431288921435" lon="10.026751148043163"><ele>1115.2857142857142</ele><time>2026-04-06T09:58:57.999Z</time></trkpt><trkpt lat="46.04842939457469" lon="10.026852961334624"><ele>1124.142857142857</ele><time>2026-04-06T09:59:05.999Z</time></trkpt><trkpt lat="46.04841336931149" lon="10.026956125179467"><ele>1133.0</ele><time>2026-04-06T09:59:13Z</time></trkpt><trkpt lat="46.048421134123004" lon="10.027059320057266"><ele>1133.0</ele><time>2026-04-06T09:59:22Z</time></trkpt><trkpt lat="46.048426886451324" lon="10.02715858464331"><ele>1133.0</ele><time>2026-04-06T09:59:29Z</time></trkpt><trkpt lat="46.04845661760412" lon="10.027243776034139"><ele>1133.0</ele><time>2026-04-06T09:59:43Z</time></trkpt><trkpt lat="46.04846864406135" lon="10.02734859342249"><ele>1133.0</ele><time>2026-04-06T09:59:57Z</time></trkpt><trkpt lat="46.048521083804424" lon="10.02739975413792"><ele>1133.0</ele><time>2026-04-06T10:00:10Z</time></trkpt><trkpt lat="46.04856801421416" lon="10.027317213331107"><ele>1133.0</ele><time>2026-04-06T10:00:31.999Z</time></trkpt><trkpt lat="46.04853416901229" lon="10.02723951340281"><ele>1133.0</ele><time>2026-04-06T10:00:39.999Z</time></trkpt><trkpt lat="46.048505593622764" lon="10.027153334786414"><ele>1133.0</ele><time>2026-04-06T10:01:00.999Z</time></trkpt><trkpt lat="46.048557390684834" lon="10.027085969103627"><ele>1133.0</ele><time>2026-04-06T10:01:08.999Z</time></trkpt><trkpt lat="46.04862181468479" lon="10.027133514980575"><ele>1133.0</ele><time>2026-04-06T10:01:26Z</time></trkpt><trkpt lat="46.04869795205007" lon="10.027108611348325"><ele>1133.0</ele><time>2026-04-06T10:01:41Z</time></trkpt><trkpt lat="46.048751354141274" lon="10.027052224454888"><ele>1133.0</ele><time>2026-04-06T10:03:59Z</time></trkpt><trkpt lat="46.0488198626967" lon="10.027049251333105"><ele>1133.0</ele><time>2026-04-06T10:04:30Z</time></trkpt><trkpt lat="46.048867989066736" lon="10.027122950347225"><ele>1133.0</ele><time>2026-04-06T10:04:48.999Z</time></trkpt><trkpt lat="46.04892833134723" lon="10.027159750066883"><ele>1133.0</ele><time>2026-04-06T10:04:57.999Z</time></trkpt><trkpt lat="46.04900628411102" lon="10.027182004120508"><ele>1133.0</ele><time>2026-04-06T10:05:11.999Z</time></trkpt><trkpt lat="46.049068411293355" lon="10.027206143052727"><ele>1133.0</ele><time>2026-04-06T10:05:27Z</time></trkpt><trkpt lat="46.04913951090817" lon="10.02722104502027"><ele>1133.0</ele><time>2026-04-06T10:05:58Z</time></trkpt><trkpt lat="46.049202693442076" lon="10.027246108801457"><ele>1133.0</ele><time>2026-04-06T10:06:06Z</time></trkpt><trkpt lat="46.049270277119916" lon="10.027274166866944"><ele>1133.0</ele><time>2026-04-06T10:06:16Z</time></trkpt><trkpt lat="46.04933847820298" lon="10.02729239562202"><ele>1133.0</ele><time>2026-04-06T10:06:25Z</time></trkpt><trkpt lat="46.049407573864094" lon="10.027314656730763"><ele>1138.142857142857</ele><time>2026-04-06T10:06:35.999Z</time></trkpt><trkpt lat="46.049466844372574" lon="10.027355076247611"><ele>1143.2857142857142</ele><time>2026-04-06T10:06:46.998Z</time></trkpt><trkpt lat="46.049530512627385" lon="10.027401354778473"><ele>1148.4285714285716</ele><time>2026-04-06T10:07:17.998Z</time></trkpt><trkpt lat="46.04959668997541" lon="10.027402098738268"><ele>1153.5714285714284</ele><time>2026-04-06T10:07:30.998Z</time></trkpt><trkpt lat="46.049653570076686" lon="10.027357140042524"><ele>1158.7142857142858</ele><time>2026-04-06T10:36:38Z</time></trkpt><trkpt lat="46.04961873777156" lon="10.02727984490276"><ele>1163.857142857143</ele><time>2026-04-06T10:40:16Z</time></trkpt><trkpt lat="46.04958271263495" lon="10.02718540058111"><ele>1169.0</ele><time>2026-04-06T10:40:23Z</time></trkpt><trkpt lat="46.049538468706835" lon="10.027101412920835"><ele>1169.0</ele><time>2026-04-06T10:40:28Z</time></trkpt><trkpt lat="46.04949001339642" lon="10.027016968633468"><ele>1169.0</ele><time>2026-04-06T10:40:34Z</time></trkpt><trkpt lat="46.04946178431281" lon="10.026929423782018"><ele>1169.0</ele><time>2026-04-06T10:40:43Z</time></trkpt><trkpt lat="46.04952951922422" lon="10.026914632556853"><ele>1169.0</ele><time>2026-04-06T10:40:56Z</time></trkpt><trkpt lat="46.04959584844029" lon="10.026942399663964"><ele>1169.0</ele><time>2026-04-06T10:41:07Z</time></trkpt><trkpt lat="46.0496760212399" lon="10.02694672324376"><ele>1169.0</ele><time>2026-04-06T10:41:11.001Z</time></trkpt><trkpt lat="46.04973903230671" lon="10.026976822780984"><ele>1169.0</ele><time>2026-04-06T10:41:18.001Z</time></trkpt><trkpt lat="46.04980487692314" lon="10.027017587683064"><ele>1169.0</ele><time>2026-04-06T10:41:23.001Z</time></trkpt><trkpt lat="46.04979037712247" lon="10.027112628620172"><ele>1169.0</ele><time>2026-04-06T10:41:26.001Z</time></trkpt><trkpt lat="46.0498067596838" lon="10.027214690670034"><ele>1169.0</ele><time>2026-04-06T10:41:31.001Z</time></trkpt><trkpt lat="46.049874485986706" lon="10.027252445032236"><ele>1169.0</ele><time>2026-04-06T10:41:42.001Z</time></trkpt><trkpt lat="46.04991426067547" lon="10.027327670139025"><ele>1169.0</ele><time>2026-04-06T10:41:51Z</time></trkpt><trkpt lat="46.04992912169565" lon="10.027421952352373"><ele>1169.0</ele><time>2026-04-06T10:41:58Z</time></trkpt><trkpt lat="46.04995291652837" lon="10.027537051543026"><ele>1169.0</ele><time>2026-04-06T10:42:05Z</time></trkpt><trkpt lat="46.049983232401786" lon="10.02762588642626"><ele>1172.0</ele><time>2026-04-06T10:42:12Z</time></trkpt><trkpt lat="46.05001046468568" lon="10.027711155617686"><ele>1175.0</ele><time>2026-04-06T10:42:29Z</time></trkpt><trkpt lat="46.05003654896306" lon="10.027806179379576"><ele>1178.0</ele><time>2026-04-06T10:42:36Z</time></trkpt><trkpt lat="46.050060341892696" lon="10.027906384237669"><ele>1181.0</ele><time>2026-04-06T10:42:42Z</time></trkpt><trkpt lat="46.050089195590964" lon="10.027998635515823"><ele>1184.0</ele><time>2026-04-06T10:42:49Z</time></trkpt><trkpt lat="46.05012424623768" lon="10.028079268867879"><ele>1187.0</ele><time>2026-04-06T10:42:55Z</time></trkpt><trkpt lat="46.05018630772532" lon="10.028122337857965"><ele>1190.0</ele><time>2026-04-06T10:43:00Z</time></trkpt><trkpt lat="46.05024992210143" lon="10.028144256779784"><ele>1190.0</ele><time>2026-04-06T10:43:05Z</time></trkpt><trkpt lat="46.050313250053414" lon="10.028204785514093"><ele>1190.0</ele><time>2026-04-06T10:43:11.001Z</time></trkpt><trkpt lat="46.05030066641618" lon="10.028307526539722"><ele>1190.0</ele><time>2026-04-06T10:43:16.001Z</time></trkpt><trkpt lat="46.05027599835313" lon="10.028397247866682"><ele>1190.0</ele><time>2026-04-06T10:43:23.001Z</time></trkpt><trkpt lat="46.05029113510009" lon="10.028485922074971"><ele>1190.0</ele><time>2026-04-06T10:43:27.001Z</time></trkpt><trkpt lat="46.050336352616" lon="10.02856080627671"><ele>1190.0</ele><time>2026-04-06T10:43:33.001Z</time></trkpt><trkpt lat="46.050375478656115" lon="10.028648356006048"><ele>1190.0</ele><time>2026-04-06T10:43:41.001Z</time></trkpt><trkpt lat="46.05041299298651" lon="10.028728206345445"><ele>1188.2857142857142</ele><time>2026-04-06T10:43:47.001Z</time></trkpt><trkpt lat="46.05044186422308" lon="10.028817135997723"><ele>1186.5714285714284</ele><time>2026-04-06T10:43:53.001Z</time></trkpt><trkpt lat="46.050487851726174" lon="10.028881744706542"><ele>1184.857142857143</ele><time>2026-04-06T10:43:59Z</time></trkpt><trkpt lat="46.050525318985876" lon="10.028965834592626"><ele>1183.142857142857</ele><time>2026-04-06T10:44:04Z</time></trkpt><trkpt lat="46.05058495823034" lon="10.02902171048524"><ele>1181.4285714285713</ele><time>2026-04-06T10:44:11Z</time></trkpt><trkpt lat="46.05063086856972" lon="10.029098029414035"><ele>1179.7142857142858</ele><time>2026-04-06T10:44:17Z</time></trkpt><trkpt lat="46.05067393551775" lon="10.029165046851725"><ele>1178.0</ele><time>2026-04-06T10:44:23Z</time></trkpt><trkpt lat="46.05072392911933" lon="10.029240875260014"><ele>1177.142857142857</ele><time>2026-04-06T10:44:30Z</time></trkpt><trkpt lat="46.050758816440734" lon="10.029324750919569"><ele>1176.2857142857142</ele><time>2026-04-06T10:44:36Z</time></trkpt><trkpt lat="46.050793915496726" lon="10.029402920818312"><ele>1175.4285714285713</ele><time>2026-04-06T10:44:42Z</time></trkpt><trkpt lat="46.050821676350935" lon="10.029486644512"><ele>1174.5714285714284</ele><time>2026-04-06T10:44:48Z</time></trkpt><trkpt lat="46.0508356193879" lon="10.029585739476087"><ele>1173.7142857142858</ele><time>2026-04-06T10:44:55Z</time></trkpt><trkpt lat="46.05086969778533" lon="10.02968186541987"><ele>1172.8571428571427</ele><time>2026-04-06T10:45:02Z</time></trkpt><trkpt lat="46.0508831409661" lon="10.029786477140838"><ele>1172.0</ele><time>2026-04-06T10:45:13Z</time></trkpt><trkpt lat="46.05091505330645" lon="10.029882530667278"><ele>1174.5714285714284</ele><time>2026-04-06T10:45:19Z</time></trkpt><trkpt lat="46.050938841366055" lon="10.029977817504612"><ele>1177.142857142857</ele><time>2026-04-06T10:45:25.001Z</time></trkpt><trkpt lat="46.050957883040496" lon="10.030065122742686"><ele>1179.7142857142858</ele><time>2026-04-06T10:45:31.001Z</time></trkpt><trkpt lat="46.05092188900607" lon="10.03016053910126"><ele>1182.2857142857142</ele><time>2026-04-06T10:45:37.001Z</time></trkpt><trkpt lat="46.05088943186042" lon="10.030243997741897"><ele>1184.857142857143</ele><time>2026-04-06T10:46:03Z</time></trkpt><trkpt lat="46.05084108712771" lon="10.03031275581833"><ele>1187.4285714285713</ele><time>2026-04-06T10:46:10Z</time></trkpt><trkpt lat="46.05082049442856" lon="10.030413044457234"><ele>1190.0</ele><time>2026-04-06T10:46:16Z</time></trkpt><trkpt lat="46.05086826321206" lon="10.030499357088399"><ele>1190.0</ele><time>2026-04-06T10:46:23Z</time></trkpt><trkpt lat="46.050897756437514" lon="10.030584386892448"><ele>1190.0</ele><time>2026-04-06T10:46:29Z</time></trkpt><trkpt lat="46.0508952077994" lon="10.03068966010122"><ele>1190.0</ele><time>2026-04-06T10:46:37Z</time></trkpt><trkpt lat="46.050930454080884" lon="10.03077337043248"><ele>1190.0</ele><time>2026-04-06T10:46:46Z</time></trkpt><trkpt lat="46.05095334904474" lon="10.03086150922627"><ele>1190.0</ele><time>2026-04-06T10:46:52Z</time></trkpt><trkpt lat="46.05095687344733" lon="10.030964778050656"><ele>1190.0</ele><time>2026-04-06T10:46:58Z</time></trkpt><trkpt lat="46.050997003438304" lon="10.031056636810302"><ele>1190.0</ele><time>2026-04-06T10:47:05Z</time></trkpt><trkpt lat="46.051029838902345" lon="10.031151745353585"><ele>1188.7142857142858</ele><time>2026-04-06T10:47:11Z</time></trkpt><trkpt lat="46.051068943711854" lon="10.03122552618053"><ele>1187.4285714285716</ele><time>2026-04-06T10:47:22Z</time></trkpt><trkpt lat="46.051104787902915" lon="10.031310774625634"><ele>1186.142857142857</ele><time>2026-04-06T10:47:29.001Z</time></trkpt><trkpt lat="46.051107980093946" lon="10.031410827702658"><ele>1184.857142857143</ele><time>2026-04-06T10:47:35.001Z</time></trkpt><trkpt lat="46.05118756504707" lon="10.031415241568984"><ele>1183.5714285714287</ele><time>2026-04-06T10:48:27.001Z</time></trkpt><trkpt lat="46.05125232333732" lon="10.03142879051908"><ele>1182.2857142857142</ele><time>2026-04-06T10:48:35Z</time></trkpt><trkpt lat="46.051306242455205" lon="10.031500604249311"><ele>1181.0</ele><time>2026-04-06T10:48:41Z</time></trkpt><trkpt lat="46.05136493491369" lon="10.031534489782551"><ele>1181.0</ele><time>2026-04-06T10:48:46Z</time></trkpt><trkpt lat="46.0514218976144" lon="10.031591661114671"><ele>1181.0</ele><time>2026-04-06T10:48:52Z</time></trkpt><trkpt lat="46.051445427803046" lon="10.031698359994005"><ele>1181.0</ele><time>2026-04-06T10:48:59Z</time></trkpt><trkpt lat="46.05147121513104" lon="10.031787493484924"><ele>1181.0</ele><time>2026-04-06T10:49:05Z</time></trkpt><trkpt lat="46.051509920721095" lon="10.031874882946491"><ele>1181.0</ele><time>2026-04-06T10:49:12Z</time></trkpt><trkpt lat="46.051551943903256" lon="10.031952275070266"><ele>1181.0</ele><time>2026-04-06T10:49:18Z</time></trkpt><trkpt lat="46.05164586191764" lon="10.032018860611528"><ele>1183.7142857142858</ele><time>2026-04-06T10:50:03.001Z</time></trkpt><trkpt lat="46.05170529589588" lon="10.03206604993657"><ele>1186.4285714285716</ele><time>2026-04-06T10:50:10.001Z</time></trkpt><trkpt lat="46.0517486357618" lon="10.03213466223282"><ele>1189.142857142857</ele><time>2026-04-06T10:50:18.001Z</time></trkpt><trkpt lat="46.0518063468404" lon="10.032184733287085"><ele>1191.857142857143</ele><time>2026-04-06T10:50:30Z</time></trkpt><trkpt lat="46.051855391707676" lon="10.032248394049478"><ele>1194.5714285714284</ele><time>2026-04-06T10:50:37Z</time></trkpt><trkpt lat="46.05191248810653" lon="10.032341563423023"><ele>1197.2857142857142</ele><time>2026-04-06T10:50:51Z</time></trkpt><trkpt lat="46.05188707868356" lon="10.032427125228237"><ele>1200.0</ele><time>2026-04-06T10:51:38Z</time></trkpt><trkpt lat="46.05190232112451" lon="10.032519170403045"><ele>1199.9999999999998</ele><time>2026-04-06T10:51:51Z</time></trkpt><trkpt lat="46.05182883595703" lon="10.032555435751114"><ele>1200.0</ele><time>2026-04-06T10:52:42Z</time></trkpt><trkpt lat="46.05176049816668" lon="10.032566824308292"><ele>1200.0</ele><time>2026-04-06T10:53:14Z</time></trkpt><trkpt lat="46.05168541405484" lon="10.032559144113891"><ele>1200.0</ele><time>2026-04-06T10:53:22Z</time></trkpt><trkpt lat="46.05162718405374" lon="10.032603654781457"><ele>1200.0</ele><time>2026-04-06T10:53:38Z</time></trkpt><trkpt lat="46.05156949706222" lon="10.032650596568764"><ele>1199.9999999999998</ele><time>2026-04-06T10:54:10Z</time></trkpt><trkpt lat="46.05157880224688" lon="10.032743230798923"><ele>1200.0</ele><time>2026-04-06T10:54:13Z</time></trkpt><trkpt lat="46.05159650979066" lon="10.03283973954132"><ele>1200.3333333333333</ele><time>2026-04-06T10:54:21Z</time></trkpt><trkpt lat="46.0515939729605" lon="10.032744566339888"><ele>1200.6666666666667</ele><time>2026-04-06T10:54:29Z</time></trkpt><trkpt lat="46.05160176708355" lon="10.03261559484962"><ele>1201.0</ele><time>2026-04-06T10:54:58.068Z</time></trkpt><trkpt lat="46.051528714873676" lon="10.032512359327008"><ele>1201.3333333333335</ele><time>2026-04-06T11:00:57.999Z</time></trkpt><trkpt lat="46.05152067350087" lon="10.032609679873513"><ele>1201.6666666666667</ele><time>2026-04-06T11:07:09Z</time></trkpt><trkpt lat="46.05158274628448" lon="10.032653383102367"><ele>1202.0</ele><time>2026-04-06T11:07:16Z</time></trkpt><trkpt lat="46.05160765538364" lon="10.032562155875702"><ele>1202.142857142857</ele><time>2026-04-06T11:10:20.001Z</time></trkpt><trkpt lat="46.05167507890656" lon="10.032513416284244"><ele>1202.2857142857144</ele><time>2026-04-06T11:11:58.001Z</time></trkpt><trkpt lat="46.051741649662425" lon="10.032542922044442"><ele>1202.4285714285716</ele><time>2026-04-06T11:12:04.001Z</time></trkpt><trkpt lat="46.05181707477306" lon="10.032540206750735"><ele>1202.5714285714284</ele><time>2026-04-06T11:12:13.001Z</time></trkpt><trkpt lat="46.05186977308913" lon="10.03247156513526"><ele>1202.7142857142858</ele><time>2026-04-06T11:12:23.001Z</time></trkpt><trkpt lat="46.05191637443927" lon="10.032552774092618"><ele>1202.857142857143</ele><time>2026-04-06T11:12:35.001Z</time></trkpt><trkpt lat="46.0519468309943" lon="10.03263398681198"><ele>1203.0</ele><time>2026-04-06T11:12:42Z</time></trkpt><trkpt lat="46.05195255853129" lon="10.032733960444787"><ele>1202.5714285714284</ele><time>2026-04-06T11:12:49Z</time></trkpt><trkpt lat="46.051967453437285" lon="10.03282297706162"><ele>1202.142857142857</ele><time>2026-04-06T11:12:56Z</time></trkpt><trkpt lat="46.05197856767043" lon="10.032915930378532"><ele>1201.7142857142858</ele><time>2026-04-06T11:13:03Z</time></trkpt><trkpt lat="46.05198506711966" lon="10.03300785246282"><ele>1201.2857142857142</ele><time>2026-04-06T11:13:10.001Z</time></trkpt><trkpt lat="46.05199964640894" lon="10.033103607044874"><ele>1200.857142857143</ele><time>2026-04-06T11:13:16.001Z</time></trkpt><trkpt lat="46.05199979573635" lon="10.0331975210011"><ele>1200.4285714285713</ele><time>2026-04-06T11:13:22.001Z</time></trkpt><trkpt lat="46.05194782560084" lon="10.033254889621182"><ele>1200.0</ele><time>2026-04-06T11:13:29.001Z</time></trkpt><trkpt lat="46.05190543078607" lon="10.033332346853207"><ele>1200.8571428571427</ele><time>2026-04-06T11:13:35.001Z</time></trkpt><trkpt lat="46.051929332135494" lon="10.033419927906351"><ele>1201.7142857142858</ele><time>2026-04-06T11:13:42.001Z</time></trkpt><trkpt lat="46.05192248286508" lon="10.03351148612207"><ele>1202.5714285714284</ele><time>2026-04-06T11:13:49.001Z</time></trkpt><trkpt lat="46.051915425090414" lon="10.033602844941246"><ele>1203.4285714285713</ele><time>2026-04-06T11:13:58.001Z</time></trkpt><trkpt lat="46.05189241519174" lon="10.033691618863811"><ele>1204.2857142857142</ele><time>2026-04-06T11:14:06.001Z</time></trkpt><trkpt lat="46.051869124648825" lon="10.033790343473344"><ele>1205.142857142857</ele><time>2026-04-06T11:14:14.001Z</time></trkpt><trkpt lat="46.05183877821049" lon="10.033877461070501"><ele>1206.0</ele><time>2026-04-06T11:14:22.001Z</time></trkpt><trkpt lat="46.051826780872545" lon="10.0339670742579"><ele>1206.0</ele><time>2026-04-06T11:14:39.001Z</time></trkpt><trkpt lat="46.05176335869647" lon="10.034001297041726"><ele>1206.0</ele><time>2026-04-06T11:15:05.001Z</time></trkpt><trkpt lat="46.05175008135868" lon="10.034099378971671"><ele>1206.0</ele><time>2026-04-06T11:15:24.001Z</time></trkpt><trkpt lat="46.05173836666494" lon="10.034190309950136"><ele>1206.0</ele><time>2026-04-06T11:15:34.001Z</time></trkpt><trkpt lat="46.05169715399809" lon="10.034273730766714"><ele>1206.0</ele><time>2026-04-06T11:15:41.001Z</time></trkpt><trkpt lat="46.051650069165895" lon="10.034342766871415"><ele>1206.0</ele><time>2026-04-06T11:15:53.001Z</time></trkpt><trkpt lat="46.05164959032652" lon="10.034445558848558"><ele>1206.0</ele><time>2026-04-06T11:16:11.001Z</time></trkpt><trkpt lat="46.05160605559084" lon="10.034521574333231"><ele>1206.5714285714287</ele><time>2026-04-06T11:16:20.001Z</time></trkpt><trkpt lat="46.05159033720803" lon="10.034626045844522"><ele>1207.142857142857</ele><time>2026-04-06T11:16:28.001Z</time></trkpt><trkpt lat="46.05157635643793" lon="10.034714960649294"><ele>1207.7142857142858</ele><time>2026-04-06T11:16:36Z</time></trkpt><trkpt lat="46.051556647963665" lon="10.034816916378315"><ele>1208.2857142857142</ele><time>2026-04-06T11:18:29Z</time></trkpt><trkpt lat="46.05159792481248" lon="10.034889397997759"><ele>1208.857142857143</ele><time>2026-04-06T11:18:37Z</time></trkpt><trkpt lat="46.051626569116415" lon="10.034987245570228"><ele>1209.4285714285713</ele><time>2026-04-06T11:18:44Z</time></trkpt><trkpt lat="46.05162039233372" lon="10.035080944553702"><ele>1210.0</ele><time>2026-04-06T11:18:50Z</time></trkpt><trkpt lat="46.051668151839856" lon="10.035151755545293"><ele>1210.0</ele><time>2026-04-06T11:18:56.001Z</time></trkpt><trkpt lat="46.0517039635865" lon="10.035227326608698"><ele>1210.0</ele><time>2026-04-06T11:19:02.001Z</time></trkpt><trkpt lat="46.05176478269391" lon="10.035275242456382"><ele>1210.0</ele><time>2026-04-06T11:19:09Z</time></trkpt><trkpt lat="46.05183223951533" lon="10.035311774995174"><ele>1210.0</ele><time>2026-04-06T11:19:17Z</time></trkpt><trkpt lat="46.05187856557763" lon="10.035383125150675"><ele>1210.0</ele><time>2026-04-06T11:19:25Z</time></trkpt><trkpt lat="46.05194257435783" lon="10.035391888586435"><ele>1210.0</ele><time>2026-04-06T11:19:34Z</time></trkpt><trkpt lat="46.051999844398864" lon="10.035430910847488"><ele>1210.0</ele><time>2026-04-06T11:19:45Z</time></trkpt><trkpt lat="46.05206574100898" lon="10.035448130880372"><ele>1210.0</ele><time>2026-04-06T11:19:52Z</time></trkpt><trkpt lat="46.05212980609506" lon="10.035491095242017"><ele>1210.0</ele><time>2026-04-06T11:20:01Z</time></trkpt><trkpt lat="46.05219686613079" lon="10.03552683802022"><ele>1210.0</ele><time>2026-04-06T11:20:09Z</time></trkpt><trkpt lat="46.05225560364878" lon="10.035578549353492"><ele>1210.0</ele><time>2026-04-06T11:20:18Z</time></trkpt><trkpt lat="46.052322607414474" lon="10.03562859876196"><ele>1210.0</ele><time>2026-04-06T11:20:26Z</time></trkpt><trkpt lat="46.05238397751706" lon="10.035670434475941"><ele>1210.0</ele><time>2026-04-06T11:20:44Z</time></trkpt><trkpt lat="46.0524492540733" lon="10.03568754444917"><ele>1210.0</ele><time>2026-04-06T11:21:03.001Z</time></trkpt><trkpt lat="46.05248818616867" lon="10.035758977368731"><ele>1213.5714285714284</ele><time>2026-04-06T11:21:12.001Z</time></trkpt><trkpt lat="46.05246828931094" lon="10.03584798635234"><ele>1217.142857142857</ele><time>2026-04-06T11:21:21.001Z</time></trkpt><trkpt lat="46.05241324641757" lon="10.035898047127388"><ele>1220.7142857142858</ele><time>2026-04-06T11:21:30.001Z</time></trkpt><trkpt lat="46.05238060678213" lon="10.035981942071643"><ele>1224.2857142857142</ele><time>2026-04-06T11:21:38.001Z</time></trkpt><trkpt lat="46.052354552040434" lon="10.036080892639777"><ele>1227.857142857143</ele><time>2026-04-06T11:21:45.001Z</time></trkpt><trkpt lat="46.052303960244174" lon="10.036153659163636"><ele>1231.4285714285713</ele><time>2026-04-06T11:21:54.001Z</time></trkpt><trkpt lat="46.05225423329525" lon="10.036218580027077"><ele>1235.0</ele><time>2026-04-06T11:22:03.001Z</time></trkpt><trkpt lat="46.05221198711917" lon="10.036286566948887"><ele>1235.4285714285713</ele><time>2026-04-06T11:22:10.001Z</time></trkpt><trkpt lat="46.052276002823625" lon="10.036327447950052"><ele>1235.857142857143</ele><time>2026-04-06T11:22:44.001Z</time></trkpt><trkpt lat="46.05233982134932" lon="10.036318593286936"><ele>1236.2857142857142</ele><time>2026-04-06T11:22:52.001Z</time></trkpt><trkpt lat="46.052402926997644" lon="10.036337162648495"><ele>1236.7142857142858</ele><time>2026-04-06T11:23:00Z</time></trkpt><trkpt lat="46.05243182717551" lon="10.036418751838527"><ele>1237.142857142857</ele><time>2026-04-06T11:23:12.002Z</time></trkpt><trkpt lat="46.05238961500405" lon="10.036489614535586"><ele>1237.5714285714284</ele><time>2026-04-06T11:23:30.001Z</time></trkpt><trkpt lat="46.05235177575708" lon="10.036568981395662"><ele>1238.0</ele><time>2026-04-06T11:23:37.001Z</time></trkpt><trkpt lat="46.05233256314567" lon="10.036657594103742"><ele>1240.857142857143</ele><time>2026-04-06T11:23:46.001Z</time></trkpt><trkpt lat="46.05229138008918" lon="10.036740666516787"><ele>1243.7142857142858</ele><time>2026-04-06T11:23:54.001Z</time></trkpt><trkpt lat="46.05235411564225" lon="10.036776790918871"><ele>1246.5714285714284</ele><time>2026-04-06T11:24:07.001Z</time></trkpt><trkpt lat="46.052424033252905" lon="10.036769348702126"><ele>1249.4285714285716</ele><time>2026-04-06T11:24:15.001Z</time></trkpt><trkpt lat="46.05247433263459" lon="10.03684285960155"><ele>1252.2857142857144</ele><time>2026-04-06T11:24:23Z</time></trkpt><trkpt lat="46.05242548719344" lon="10.036901669305893"><ele>1255.142857142857</ele><time>2026-04-06T11:24:31Z</time></trkpt><trkpt lat="46.05239516682077" lon="10.036987729567109"><ele>1258.0</ele><time>2026-04-06T11:24:39Z</time></trkpt><trkpt lat="46.052462916193114" lon="10.037026975205682"><ele>1258.0</ele><time>2026-04-06T11:25:30.001Z</time></trkpt><trkpt lat="46.05252531329038" lon="10.037039181361846"><ele>1258.0</ele><time>2026-04-06T11:25:37.001Z</time></trkpt><trkpt lat="46.05257449076784" lon="10.03710410108634"><ele>1258.0</ele><time>2026-04-06T11:25:45.001Z</time></trkpt><trkpt lat="46.05262238281293" lon="10.03716899558454"><ele>1258.0</ele><time>2026-04-06T11:25:52.001Z</time></trkpt><trkpt lat="46.052683837921165" lon="10.037212828032805"><ele>1258.0</ele><time>2026-04-06T11:25:59.001Z</time></trkpt><trkpt lat="46.05273560750188" lon="10.037269378622316"><ele>1258.0</ele><time>2026-04-06T11:26:07.001Z</time></trkpt><trkpt lat="46.05278600251649" lon="10.037327720343358"><ele>1258.0</ele><time>2026-04-06T11:26:14Z</time></trkpt><trkpt lat="46.052856577630976" lon="10.037301490138729"><ele>1258.0</ele><time>2026-04-06T11:26:27Z</time></trkpt><trkpt lat="46.05289402119075" lon="10.03722387923206"><ele>1258.0</ele><time>2026-04-06T11:26:33Z</time></trkpt><trkpt lat="46.052930728460304" lon="10.037134232098902"><ele>1258.0</ele><time>2026-04-06T11:26:40Z</time></trkpt><trkpt lat="46.05294325516075" lon="10.037042047065803"><ele>1258.0</ele><time>2026-04-06T11:26:48Z</time></trkpt><trkpt lat="46.053007855522075" lon="10.037076905082332"><ele>1258.0</ele><time>2026-04-06T11:28:43Z</time></trkpt><trkpt lat="46.053082659063314" lon="10.03711636041127"><ele>1258.0</ele><time>2026-04-06T11:29:09Z</time></trkpt><trkpt lat="46.05315343324506" lon="10.03710271788199"><ele>1258.0</ele><time>2026-04-06T11:29:48Z</time></trkpt><trkpt lat="46.053198948771254" lon="10.037196921461886"><ele>1258.0</ele><time>2026-04-06T11:30:12Z</time></trkpt><trkpt lat="46.05324830530859" lon="10.037265547712465"><ele>1258.0</ele><time>2026-04-06T11:30:18Z</time></trkpt><trkpt lat="46.05330273293877" lon="10.037325266486823"><ele>1258.0</ele><time>2026-04-06T11:30:24Z</time></trkpt><trkpt lat="46.05336161404572" lon="10.037382864990926"><ele>1258.0</ele><time>2026-04-06T11:30:30Z</time></trkpt><trkpt lat="46.05340220640254" lon="10.037462092996916"><ele>1258.0</ele><time>2026-04-06T11:30:39Z</time></trkpt><trkpt lat="46.05343188679262" lon="10.037550526983143"><ele>1258.0</ele><time>2026-04-06T11:30:45Z</time></trkpt><trkpt lat="46.053494804738484" lon="10.037571689539297"><ele>1258.0</ele><time>2026-04-06T11:30:51.999Z</time></trkpt><trkpt lat="46.05355870324365" lon="10.037623646713767"><ele>1261.7142857142856</ele><time>2026-04-06T11:30:57.999Z</time></trkpt><trkpt lat="46.05361294811616" lon="10.037680791166075"><ele>1265.4285714285716</ele><time>2026-04-06T11:31:05.999Z</time></trkpt><trkpt lat="46.05368622454699" lon="10.037692169103025"><ele>1269.142857142857</ele><time>2026-04-06T11:31:12.999Z</time></trkpt><trkpt lat="46.05374090185347" lon="10.03775137308047"><ele>1272.8571428571427</ele><time>2026-04-06T11:31:18.999Z</time></trkpt><trkpt lat="46.05380334113146" lon="10.037799168777692"><ele>1276.5714285714284</ele><time>2026-04-06T11:31:24.999Z</time></trkpt><trkpt lat="46.05386538056316" lon="10.037838730276684"><ele>1280.2857142857142</ele><time>2026-04-06T11:31:31.001Z</time></trkpt><trkpt lat="46.053948134182185" lon="10.03789887225146"><ele>1284.0</ele><time>2026-04-06T11:31:41Z</time></trkpt><trkpt lat="46.054011797216" lon="10.037937841970184"><ele>1283.9999999999998</ele><time>2026-04-06T11:31:47Z</time></trkpt><trkpt lat="46.05407116046742" lon="10.037987724149925"><ele>1284.0</ele><time>2026-04-06T11:31:52Z</time></trkpt><trkpt lat="46.05413440644948" lon="10.038023627986787"><ele>1284.0</ele><time>2026-04-06T11:32:07Z</time></trkpt><trkpt lat="46.054177639940384" lon="10.038091065559216"><ele>1284.0</ele><time>2026-04-06T11:34:05Z</time></trkpt><trkpt lat="46.054234026741916" lon="10.038137041830476"><ele>1284.0</ele><time>2026-04-06T11:34:13Z</time></trkpt><trkpt lat="46.05429923471253" lon="10.038167998773831"><ele>1283.9999999999998</ele><time>2026-04-06T11:34:23Z</time></trkpt><trkpt lat="46.05436025891577" lon="10.038136899682513"><ele>1284.0</ele><time>2026-04-06T11:34:29Z</time></trkpt><trkpt lat="46.05443389015803" lon="10.038119932826465"><ele>1283.142857142857</ele><time>2026-04-06T11:34:39Z</time></trkpt><trkpt lat="46.05446677846096" lon="10.038197369394036"><ele>1282.2857142857142</ele><time>2026-04-06T11:34:48Z</time></trkpt><trkpt lat="46.05453236926584" lon="10.038196669714901"><ele>1281.4285714285716</ele><time>2026-04-06T11:34:53Z</time></trkpt><trkpt lat="46.054596358969214" lon="10.03822888975368"><ele>1280.5714285714284</ele><time>2026-04-06T11:35:09.999Z</time></trkpt><trkpt lat="46.05466582145772" lon="10.038259228327878"><ele>1279.7142857142858</ele><time>2026-04-06T11:35:18.999Z</time></trkpt><trkpt lat="46.054732292350714" lon="10.038272500130795"><ele>1278.857142857143</ele><time>2026-04-06T11:35:28.999Z</time></trkpt><trkpt lat="46.05478986697621" lon="10.038315225852402"><ele>1278.0</ele><time>2026-04-06T11:35:35.999Z</time></trkpt><trkpt lat="46.054843099824126" lon="10.038379133476965"><ele>1279.7142857142858</ele><time>2026-04-06T11:35:55Z</time></trkpt><trkpt lat="46.054886405308594" lon="10.038445042127"><ele>1281.4285714285716</ele><time>2026-04-06T11:36:03Z</time></trkpt><trkpt lat="46.05495746943951" lon="10.038443990357313"><ele>1283.1428571428573</ele><time>2026-04-06T11:36:10Z</time></trkpt><trkpt lat="46.055027002548066" lon="10.038436942524058"><ele>1284.857142857143</ele><time>2026-04-06T11:36:16Z</time></trkpt><trkpt lat="46.05509233393176" lon="10.03842285577062"><ele>1286.5714285714284</ele><time>2026-04-06T11:36:23Z</time></trkpt><trkpt lat="46.05516142416515" lon="10.03842900289882"><ele>1288.2857142857144</ele><time>2026-04-06T11:36:28Z</time></trkpt><trkpt lat="46.05522980410425" lon="10.038441749269726"><ele>1290.0</ele><time>2026-04-06T11:36:34Z</time></trkpt><trkpt lat="46.055296424239394" lon="10.038395424151616"><ele>1290.0</ele><time>2026-04-06T11:36:40Z</time></trkpt><trkpt lat="46.05535994600497" lon="10.038403551441643"><ele>1290.0</ele><time>2026-04-06T11:36:46Z</time></trkpt><trkpt lat="46.055424391265035" lon="10.038433184470117"><ele>1290.0</ele><time>2026-04-06T11:36:56Z</time></trkpt><trkpt lat="46.05549098949314" lon="10.03845940231284"><ele>1290.0</ele><time>2026-04-06T11:37:02.999Z</time></trkpt><trkpt lat="46.055556976789504" lon="10.038415057301943"><ele>1290.0</ele><time>2026-04-06T11:37:09.999Z</time></trkpt><trkpt lat="46.055623161084426" lon="10.0383977571669"><ele>1290.0</ele><time>2026-04-06T11:37:15.999Z</time></trkpt><trkpt lat="46.055691041855816" lon="10.038419907688269"><ele>1290.0</ele><time>2026-04-06T11:37:21.999Z</time></trkpt><trkpt lat="46.05576370158056" lon="10.038395349863526"><ele>1291.7142857142858</ele><time>2026-04-06T11:37:28.999Z</time></trkpt><trkpt lat="46.05582386765211" lon="10.038366797252333"><ele>1293.4285714285713</ele><time>2026-04-06T11:37:33.999Z</time></trkpt><trkpt lat="46.0558863001905" lon="10.038338285067791"><ele>1295.142857142857</ele><time>2026-04-06T11:37:38.999Z</time></trkpt><trkpt lat="46.05591809208959" lon="10.038243834812418"><ele>1296.857142857143</ele><time>2026-04-06T11:37:46Z</time></trkpt><trkpt lat="46.055950224661025" lon="10.038159978225158"><ele>1298.5714285714284</ele><time>2026-04-06T11:37:57Z</time></trkpt><trkpt lat="46.05602134590205" lon="10.03813072004497"><ele>1300.2857142857142</ele><time>2026-04-06T11:39:06.999Z</time></trkpt><trkpt lat="46.05606575548775" lon="10.03804787654322"><ele>1302.0</ele><time>2026-04-06T11:39:25.999Z</time></trkpt><trkpt lat="46.056106909853845" lon="10.037970671935147"><ele>1303.2857142857142</ele><time>2026-04-06T11:39:34.999Z</time></trkpt><trkpt lat="46.05617970870265" lon="10.037953293630645"><ele>1304.5714285714284</ele><time>2026-04-06T11:39:46.999Z</time></trkpt><trkpt lat="46.056244852037594" lon="10.037899695106844"><ele>1305.857142857143</ele><time>2026-04-06T11:40:00Z</time></trkpt><trkpt lat="46.05629879562255" lon="10.037850165332896"><ele>1307.142857142857</ele><time>2026-04-06T11:40:06Z</time></trkpt><trkpt lat="46.05634781865362" lon="10.03778798703413"><ele>1308.4285714285713</ele><time>2026-04-06T11:40:17Z</time></trkpt><trkpt lat="46.05635450236673" lon="10.037686775627595"><ele>1309.7142857142858</ele><time>2026-04-06T11:40:31Z</time></trkpt><trkpt lat="46.056365921556555" lon="10.037595988014786"><ele>1311.0</ele><time>2026-04-06T11:40:38Z</time></trkpt><trkpt lat="46.05641129605416" lon="10.037523599977053"><ele>1311.0</ele><time>2026-04-06T11:40:46Z</time></trkpt><trkpt lat="46.056474585579124" lon="10.037472320704843"><ele>1311.0</ele><time>2026-04-06T11:40:56Z</time></trkpt><trkpt lat="46.0565382088674" lon="10.037458591105867"><ele>1311.0</ele><time>2026-04-06T11:41:08.999Z</time></trkpt><trkpt lat="46.05660229568047" lon="10.037484791998617"><ele>1311.0</ele><time>2026-04-06T11:41:18.999Z</time></trkpt><trkpt lat="46.05666320407703" lon="10.037513422390592"><ele>1311.0</ele><time>2026-04-06T11:41:25.999Z</time></trkpt><trkpt lat="46.0567452609968" lon="10.037528278408725"><ele>1311.0</ele><time>2026-04-06T11:41:44.999Z</time></trkpt><trkpt lat="46.056713657427515" lon="10.03763204780803"><ele>1311.0</ele><time>2026-04-06T11:42:20Z</time></trkpt><trkpt lat="46.05670840855979" lon="10.037724315164969"><ele>1312.857142857143</ele><time>2026-04-06T11:42:41Z</time></trkpt><trkpt lat="46.05673519987881" lon="10.037823154925327"><ele>1314.7142857142856</ele><time>2026-04-06T11:42:58Z</time></trkpt><trkpt lat="46.056790682283925" lon="10.037773204310778"><ele>1316.5714285714284</ele><time>2026-04-06T11:43:08Z</time></trkpt><trkpt lat="46.05685464597429" lon="10.037742743984088"><ele>1318.4285714285716</ele><time>2026-04-06T11:43:21Z</time></trkpt><trkpt lat="46.05691049104199" lon="10.0376982828736"><ele>1320.2857142857142</ele><time>2026-04-06T11:43:29.999Z</time></trkpt><trkpt lat="46.056974400566354" lon="10.03770476259899"><ele>1322.142857142857</ele><time>2026-04-06T11:43:43.999Z</time></trkpt><trkpt lat="46.05702594522694" lon="10.037759969608215"><ele>1324.0</ele><time>2026-04-06T11:43:56.999Z</time></trkpt><trkpt lat="46.05707682472985" lon="10.037702143342871"><ele>1324.0</ele><time>2026-04-06T11:44:29Z</time></trkpt><trkpt lat="46.057133960394474" lon="10.037642246101132"><ele>1324.0</ele><time>2026-04-06T11:44:53Z</time></trkpt><trkpt lat="46.05719694163855" lon="10.037642325166441"><ele>1324.0</ele><time>2026-04-06T11:45:09.999Z</time></trkpt><trkpt lat="46.05726253883272" lon="10.037649346576353"><ele>1324.0</ele><time>2026-04-06T11:45:18.999Z</time></trkpt><trkpt lat="46.057324412531656" lon="10.037679179523478"><ele>1324.0</ele><time>2026-04-06T11:45:29.999Z</time></trkpt><trkpt lat="46.057387853737936" lon="10.037693762546843"><ele>1324.0</ele><time>2026-04-06T11:45:37.999Z</time></trkpt><trkpt lat="46.05743962540386" lon="10.03774796490338"><ele>1324.0</ele><time>2026-04-06T11:46:05.998Z</time></trkpt><trkpt lat="46.05746669959758" lon="10.03785034709731"><ele>1327.5</ele><time>2026-04-06T11:47:10.999Z</time></trkpt><trkpt lat="46.05749994685393" lon="10.037933562291853"><ele>1331.0</ele><time>2026-04-06T11:48:43.999Z</time></trkpt><trkpt lat="46.05751001907245" lon="10.038028813284974"><ele>1334.5</ele><time>2026-04-06T11:48:49.999Z</time></trkpt><trkpt lat="46.057549432576" lon="10.038142739337225"><ele>1338.0</ele><time>2026-04-06T11:48:55.999Z</time></trkpt><trkpt lat="46.0575872123749" lon="10.038250157498588"><ele>1341.5</ele><time>2026-04-06T11:48:57.999Z</time></trkpt><trkpt lat="46.0575454239345" lon="10.038060484587186"><ele>1345.0</ele><time>2026-04-06T11:49:32.999Z</time></trkpt><trkpt lat="46.05755179365967" lon="10.03816098961213"><ele>1345.0</ele><time>2026-04-06T11:50:42Z</time></trkpt><trkpt lat="46.0574852844084" lon="10.038100051318297"><ele>1345.0</ele><time>2026-04-06T11:50:46.999Z</time></trkpt><trkpt lat="46.057415278323205" lon="10.038120349968326"><ele>1345.0</ele><time>2026-04-06T11:51:24.999Z</time></trkpt><trkpt lat="46.05748139588698" lon="10.038129316052933"><ele>1345.0</ele><time>2026-04-06T11:52:18.998Z</time></trkpt><trkpt lat="46.05754602895617" lon="10.038249348846701"><ele>1345.0</ele><time>2026-04-06T11:52:38Z</time></trkpt><trkpt lat="46.05759906547135" lon="10.038315336063922"><ele>1345.0</ele><time>2026-04-06T11:52:48Z</time></trkpt><trkpt lat="46.05765268466279" lon="10.038377926193903"><ele>1347.7142857142858</ele><time>2026-04-06T11:52:54Z</time></trkpt><trkpt lat="46.05763982400004" lon="10.038477207771574"><ele>1350.4285714285713</ele><time>2026-04-06T11:53:02.999Z</time></trkpt><trkpt lat="46.05760809100122" lon="10.038562636166244"><ele>1353.142857142857</ele><time>2026-04-06T11:53:28.999Z</time></trkpt><trkpt lat="46.05763043291099" lon="10.038649396050655"><ele>1355.857142857143</ele><time>2026-04-06T11:53:52.999Z</time></trkpt><trkpt lat="46.05764506213344" lon="10.03874012157686"><ele>1358.5714285714287</ele><time>2026-04-06T11:54:24.998Z</time></trkpt><trkpt lat="46.05768903375866" lon="10.038816332482282"><ele>1361.2857142857142</ele><time>2026-04-06T11:54:31.998Z</time></trkpt><trkpt lat="46.057646987166095" lon="10.038745567949912"><ele>1364.0</ele><time>2026-04-06T11:59:16.999Z</time></trkpt><trkpt lat="46.05760585190683" lon="10.038664022249078"><ele>1364.0</ele><time>2026-04-06T11:59:24.999Z</time></trkpt><trkpt lat="46.05759669268798" lon="10.038558040852303"><ele>1364.0</ele><time>2026-04-06T11:59:43.999Z</time></trkpt><trkpt lat="46.0576375542575" lon="10.038476216559838"><ele>1364.0</ele><time>2026-04-06T12:00:39.998Z</time></trkpt><trkpt lat="46.057590009583144" lon="10.038370804544908"><ele>1364.0</ele><time>2026-04-06T12:01:03Z</time></trkpt><trkpt lat="46.05754634974471" lon="10.038293862321392"><ele>1364.0</ele><time>2026-04-06T12:01:13Z</time></trkpt><trkpt lat="46.057481082256224" lon="10.038277142839382"><ele>1364.0</ele><time>2026-04-06T12:01:28Z</time></trkpt><trkpt lat="46.057442375264436" lon="10.038199776060392"><ele>1364.0</ele><time>2026-04-06T12:01:36Z</time></trkpt><trkpt lat="46.057436658253515" lon="10.038101755774418"><ele>1360.8333333333335</ele><time>2026-04-06T12:01:52.999Z</time></trkpt><trkpt lat="46.05752333537468" lon="10.03805580062244"><ele>1357.6666666666667</ele><time>2026-04-06T12:08:23Z</time></trkpt><trkpt lat="46.05751857943748" lon="10.037961409612114"><ele>1354.5</ele><time>2026-04-06T12:09:00.999Z</time></trkpt><trkpt lat="46.05744738139138" lon="10.037866119869664"><ele>1351.3333333333333</ele><time>2026-04-06T12:09:24.001Z</time></trkpt><trkpt lat="46.05742957301685" lon="10.037745845765407"><ele>1348.1666666666665</ele><time>2026-04-06T12:10:21Z</time></trkpt><trkpt lat="46.057375861711435" lon="10.037697548251684"><ele>1345.0</ele><time>2026-04-06T12:12:17Z</time></trkpt><trkpt lat="46.057301013316106" lon="10.037705532268006"><ele>1342.0</ele><time>2026-04-06T12:12:29Z</time></trkpt><trkpt lat="46.057236228030575" lon="10.037711070981242"><ele>1339.0</ele><time>2026-04-06T12:12:37Z</time></trkpt><trkpt lat="46.057176854179694" lon="10.037667552371444"><ele>1336.0</ele><time>2026-04-06T12:12:58Z</time></trkpt><trkpt lat="46.05710993574988" lon="10.037674341171453"><ele>1333.0</ele><time>2026-04-06T12:13:34.001Z</time></trkpt><trkpt lat="46.057044499227146" lon="10.037700318051087"><ele>1330.0</ele><time>2026-04-06T12:13:44.001Z</time></trkpt><trkpt lat="46.056982232145366" lon="10.037720060139192"><ele>1327.0</ele><time>2026-04-06T12:14:02Z</time></trkpt><trkpt lat="46.05691620743347" lon="10.037697704208865"><ele>1324.0</ele><time>2026-04-06T12:14:39.999Z</time></trkpt><trkpt lat="46.0568814605071" lon="10.03777634541846"><ele>1324.0</ele><time>2026-04-06T12:14:51.999Z</time></trkpt><trkpt lat="46.056813333476754" lon="10.037758401656125"><ele>1324.0</ele><time>2026-04-06T12:15:04.998Z</time></trkpt><trkpt lat="46.05674551466658" lon="10.03779156068778"><ele>1324.0</ele><time>2026-04-06T12:15:16.998Z</time></trkpt><trkpt lat="46.056678277319634" lon="10.037688525004942"><ele>1324.0</ele><time>2026-04-06T12:15:44.999Z</time></trkpt><trkpt lat="46.05673070851002" lon="10.03754762377529"><ele>1324.0</ele><time>2026-04-06T12:16:15.999Z</time></trkpt><trkpt lat="46.056687164392905" lon="10.037477793242267"><ele>1324.0</ele><time>2026-04-06T12:16:50.999Z</time></trkpt><trkpt lat="46.056623672686925" lon="10.037504664565125"><ele>1322.4285714285716</ele><time>2026-04-06T12:17:02.998Z</time></trkpt><trkpt lat="46.05656671087822" lon="10.037445799736133"><ele>1320.857142857143</ele><time>2026-04-06T12:17:15.998Z</time></trkpt><trkpt lat="46.05649409972385" lon="10.037418925085015"><ele>1319.2857142857142</ele><time>2026-04-06T12:17:21.998Z</time></trkpt><trkpt lat="46.05653369511697" lon="10.037344534934324"><ele>1317.7142857142858</ele><time>2026-04-06T12:17:30.998Z</time></trkpt><trkpt lat="46.0564707903723" lon="10.037313128482685"><ele>1316.142857142857</ele><time>2026-04-06T12:17:36.998Z</time></trkpt><trkpt lat="46.05640149381078" lon="10.037258837894141"><ele>1314.5714285714287</ele><time>2026-04-06T12:17:48Z</time></trkpt><trkpt lat="46.05633716379754" lon="10.037264415163651"><ele>1313.0</ele><time>2026-04-06T12:18:17.999Z</time></trkpt><trkpt lat="46.0562762402624" lon="10.037310656151766"><ele>1313.0000000000002</ele><time>2026-04-06T12:18:46.999Z</time></trkpt><trkpt lat="46.05620839346824" lon="10.037293604278572"><ele>1313.0</ele><time>2026-04-06T12:19:07.998Z</time></trkpt><trkpt lat="46.05619593693564" lon="10.037388851285915"><ele>1313.0</ele><time>2026-04-06T12:19:16.998Z</time></trkpt><trkpt lat="46.0561941104899" lon="10.037500554412599"><ele>1313.0</ele><time>2026-04-06T12:19:23.998Z</time></trkpt><trkpt lat="46.05615995752008" lon="10.037582492068431"><ele>1313.0</ele><time>2026-04-06T12:19:29.998Z</time></trkpt><trkpt lat="46.056227985957875" lon="10.037535662961584"><ele>1313.0000000000002</ele><time>2026-04-06T12:19:51.999Z</time></trkpt><trkpt lat="46.05628875597322" lon="10.03747660917169"><ele>1313.0</ele><time>2026-04-06T12:19:57.999Z</time></trkpt><trkpt lat="46.05633386383819" lon="10.037409958752498"><ele>1313.0000000000002</ele><time>2026-04-06T12:20:07.999Z</time></trkpt><trkpt lat="46.0564192082359" lon="10.037373242191874"><ele>1313.0</ele><time>2026-04-06T12:20:15.999Z</time></trkpt><trkpt lat="46.05647926560563" lon="10.037332436980549"><ele>1313.0</ele><time>2026-04-06T12:20:23.999Z</time></trkpt><trkpt lat="46.05651903507653" lon="10.037409527533477"><ele>1313.0</ele><time>2026-04-06T12:20:31.999Z</time></trkpt><trkpt lat="46.05648234684869" lon="10.03748605875924"><ele>1313.0</ele><time>2026-04-06T12:20:40.999Z</time></trkpt><trkpt lat="46.05642086522836" lon="10.037541904026407"><ele>1313.0000000000002</ele><time>2026-04-06T12:20:53.999Z</time></trkpt><trkpt lat="46.05638092372676" lon="10.037621729959215"><ele>1313.0</ele><time>2026-04-06T12:21:01.998Z</time></trkpt><trkpt lat="46.05636560180531" lon="10.03771949951183"><ele>1312.7142857142858</ele><time>2026-04-06T12:21:12.998Z</time></trkpt><trkpt lat="46.05633329352141" lon="10.037805340961787"><ele>1312.4285714285716</ele><time>2026-04-06T12:21:27.998Z</time></trkpt><trkpt lat="46.056313959302365" lon="10.037927024021641"><ele>1312.1428571428573</ele><time>2026-04-06T12:21:46.998Z</time></trkpt><trkpt lat="46.056274341486585" lon="10.038005511359945"><ele>1311.857142857143</ele><time>2026-04-06T12:21:50.999Z</time></trkpt><trkpt lat="46.056206051220535" lon="10.037998898530574"><ele>1311.5714285714284</ele><time>2026-04-06T12:22:05.999Z</time></trkpt><trkpt lat="46.05613655899803" lon="10.037992785280252"><ele>1311.2857142857144</ele><time>2026-04-06T12:22:12.999Z</time></trkpt><trkpt lat="46.056070122746725" lon="10.038040648733592"><ele>1311.0</ele><time>2026-04-06T12:22:25.999Z</time></trkpt><trkpt lat="46.056029907071945" lon="10.038139851882812"><ele>1311.0</ele><time>2026-04-06T12:22:37.999Z</time></trkpt><trkpt lat="46.05594474235054" lon="10.038198483937236"><ele>1311.0</ele><time>2026-04-06T12:23:43.998Z</time></trkpt><trkpt lat="46.05589911077418" lon="10.038274107377793"><ele>1311.0</ele><time>2026-04-06T12:23:54.998Z</time></trkpt><trkpt lat="46.05589484013939" lon="10.038369677668609"><ele>1311.0</ele><time>2026-04-06T12:30:24.999Z</time></trkpt><trkpt lat="46.05582440474455" lon="10.038378209999491"><ele>1311.0</ele><time>2026-04-06T12:37:45Z</time></trkpt><trkpt lat="46.05575334531017" lon="10.038392586332884"><ele>1311.0</ele><time>2026-04-06T12:37:53Z</time></trkpt><trkpt lat="46.05568652791499" lon="10.03839268595647"><ele>1311.0</ele><time>2026-04-06T12:37:59Z</time></trkpt><trkpt lat="46.055609557871186" lon="10.038399793977634"><ele>1308.0</ele><time>2026-04-06T12:38:06Z</time></trkpt><trkpt lat="46.05554545545254" lon="10.038456365180602"><ele>1305.0</ele><time>2026-04-06T12:38:13Z</time></trkpt><trkpt lat="46.05547807695847" lon="10.038442223102052"><ele>1302.0</ele><time>2026-04-06T12:38:18Z</time></trkpt><trkpt lat="46.055416391356616" lon="10.0384204885553"><ele>1299.0</ele><time>2026-04-06T12:38:25Z</time></trkpt><trkpt lat="46.05534109369579" lon="10.038404237670129"><ele>1296.0</ele><time>2026-04-06T12:38:34.999Z</time></trkpt><trkpt lat="46.05527553227679" lon="10.038396492773648"><ele>1293.0</ele><time>2026-04-06T12:38:40Z</time></trkpt><trkpt lat="46.055206083977346" lon="10.038439887535734"><ele>1290.0</ele><time>2026-04-06T12:38:52Z</time></trkpt><trkpt lat="46.055143019876226" lon="10.038422878423566"><ele>1290.0</ele><time>2026-04-06T12:38:57Z</time></trkpt><trkpt lat="46.05507724646296" lon="10.03842418122202"><ele>1290.0</ele><time>2026-04-06T12:39:03Z</time></trkpt><trkpt lat="46.055011802717544" lon="10.038431195899447"><ele>1290.0</ele><time>2026-04-06T12:39:09Z</time></trkpt><trkpt lat="46.05494202026037" lon="10.038449578390006"><ele>1290.0</ele><time>2026-04-06T12:39:16Z</time></trkpt><trkpt lat="46.05487738670596" lon="10.03843182700848"><ele>1290.0</ele><time>2026-04-06T12:39:22Z</time></trkpt><trkpt lat="46.05483255843888" lon="10.038358865350823"><ele>1290.0</ele><time>2026-04-06T12:39:28Z</time></trkpt><trkpt lat="46.05477260778232" lon="10.038294482670688"><ele>1290.0</ele><time>2026-04-06T12:39:38Z</time></trkpt><trkpt lat="46.0547144041844" lon="10.038254101004219"><ele>1288.2857142857144</ele><time>2026-04-06T12:39:44Z</time></trkpt><trkpt lat="46.054654283411274" lon="10.038225317394067"><ele>1286.5714285714284</ele><time>2026-04-06T12:39:51Z</time></trkpt><trkpt lat="46.054589929225266" lon="10.038204073021193"><ele>1284.857142857143</ele><time>2026-04-06T12:39:57Z</time></trkpt><trkpt lat="46.05452568861509" lon="10.038182620929339"><ele>1283.1428571428573</ele><time>2026-04-06T12:40:05Z</time></trkpt><trkpt lat="46.05446084037514" lon="10.03816886018256"><ele>1281.4285714285716</ele><time>2026-04-06T12:40:13Z</time></trkpt><trkpt lat="46.05438638197289" lon="10.038126196492813"><ele>1279.7142857142858</ele><time>2026-04-06T12:40:21Z</time></trkpt><trkpt lat="46.05432374005553" lon="10.038145966109806"><ele>1278.0</ele><time>2026-04-06T12:40:28Z</time></trkpt><trkpt lat="46.05425574818653" lon="10.038133399498983"><ele>1278.0000000000002</ele><time>2026-04-06T12:40:43Z</time></trkpt><trkpt lat="46.05419571645746" lon="10.038098748120678"><ele>1278.0</ele><time>2026-04-06T12:40:49Z</time></trkpt><trkpt lat="46.05413919030081" lon="10.038051419679089"><ele>1278.0</ele><time>2026-04-06T12:40:54Z</time></trkpt><trkpt lat="46.054082862815534" lon="10.038004043196443"><ele>1278.0</ele><time>2026-04-06T12:41:01.999Z</time></trkpt><trkpt lat="46.054055190088306" lon="10.037914866918916"><ele>1278.0</ele><time>2026-04-06T12:41:07.999Z</time></trkpt><trkpt lat="46.05398947340615" lon="10.037907684787466"><ele>1278.0000000000002</ele><time>2026-04-06T12:41:12.999Z</time></trkpt><trkpt lat="46.05393259335419" lon="10.037850042207548"><ele>1278.0</ele><time>2026-04-06T12:41:18.999Z</time></trkpt><trkpt lat="46.05386947126349" lon="10.037833127971854"><ele>1278.857142857143</ele><time>2026-04-06T12:41:24.999Z</time></trkpt><trkpt lat="46.05380196325547" lon="10.037793011008883"><ele>1279.7142857142858</ele><time>2026-04-06T12:41:31.999Z</time></trkpt><trkpt lat="46.05374821051351" lon="10.037728866887633"><ele>1280.5714285714284</ele><time>2026-04-06T12:41:37.999Z</time></trkpt><trkpt lat="46.05368825849725" lon="10.037701058090573"><ele>1281.4285714285716</ele><time>2026-04-06T12:41:42.999Z</time></trkpt><trkpt lat="46.05361575097555" lon="10.03770124531586"><ele>1282.2857142857142</ele><time>2026-04-06T12:41:47.999Z</time></trkpt><trkpt lat="46.05355955159323" lon="10.037648648767478"><ele>1283.142857142857</ele><time>2026-04-06T12:41:54.999Z</time></trkpt><trkpt lat="46.053510073264455" lon="10.037590789215168"><ele>1284.0</ele><time>2026-04-06T12:42:00.999Z</time></trkpt><trkpt lat="46.05344379114711" lon="10.037559935618404"><ele>1283.9999999999998</ele><time>2026-04-06T12:42:08.999Z</time></trkpt><trkpt lat="46.053408468348906" lon="10.03747172684427"><ele>1284.0</ele><time>2026-04-06T12:42:14.999Z</time></trkpt><trkpt lat="46.0533593699811" lon="10.037397213052817"><ele>1284.0</ele><time>2026-04-06T12:42:20.999Z</time></trkpt><trkpt lat="46.05331473757505" lon="10.037329618031318"><ele>1284.0</ele><time>2026-04-06T12:42:26.999Z</time></trkpt><trkpt lat="46.053259689650666" lon="10.037283387975076"><ele>1284.0</ele><time>2026-04-06T12:42:34.999Z</time></trkpt><trkpt lat="46.05320113705488" lon="10.037209682128303"><ele>1283.9999999999998</ele><time>2026-04-06T12:42:42.999Z</time></trkpt><trkpt lat="46.05315827164455" lon="10.03712512448433"><ele>1284.0</ele><time>2026-04-06T12:42:51Z</time></trkpt><trkpt lat="46.05309865671183" lon="10.037077355665332"><ele>1280.2857142857142</ele><time>2026-04-06T12:42:58Z</time></trkpt><trkpt lat="46.05304929007555" lon="10.03713876405502"><ele>1276.5714285714284</ele><time>2026-04-06T12:43:06Z</time></trkpt><trkpt lat="46.05299652261881" lon="10.037087077936517"><ele>1272.8571428571427</ele><time>2026-04-06T12:43:16Z</time></trkpt><trkpt lat="46.05298049822595" lon="10.036993349353224"><ele>1269.142857142857</ele><time>2026-04-06T12:43:23Z</time></trkpt><trkpt lat="46.05296496469571" lon="10.036892754483533"><ele>1265.4285714285716</ele><time>2026-04-06T12:43:37Z</time></trkpt><trkpt lat="46.05300612099314" lon="10.036822718994376"><ele>1261.7142857142856</ele><time>2026-04-06T12:43:44Z</time></trkpt><trkpt lat="46.05306289242604" lon="10.036767356936732"><ele>1258.0</ele><time>2026-04-06T12:43:51Z</time></trkpt><trkpt lat="46.05311779873164" lon="10.036718090416253"><ele>1258.0</ele><time>2026-04-06T12:44:07Z</time></trkpt><trkpt lat="46.053062511127315" lon="10.036762043774162"><ele>1258.0</ele><time>2026-04-06T12:45:16Z</time></trkpt><trkpt lat="46.05300355204621" lon="10.036818214360556"><ele>1258.0</ele><time>2026-04-06T12:45:22Z</time></trkpt><trkpt lat="46.052953255534554" lon="10.036885890584315"><ele>1258.0</ele><time>2026-04-06T12:45:35Z</time></trkpt><trkpt lat="46.05296228626537" lon="10.03697630436906"><ele>1258.0</ele><time>2026-04-06T12:45:41Z</time></trkpt><trkpt lat="46.05297497201688" lon="10.037072455970975"><ele>1258.0</ele><time>2026-04-06T12:46:21Z</time></trkpt><trkpt lat="46.052947700292286" lon="10.037168710684933"><ele>1258.0</ele><time>2026-04-06T12:46:28Z</time></trkpt><trkpt lat="46.05290687219919" lon="10.037251536907418"><ele>1258.0</ele><time>2026-04-06T12:46:35Z</time></trkpt><trkpt lat="46.05285061930457" lon="10.037310673347228"><ele>1258.0</ele><time>2026-04-06T12:46:42.999Z</time></trkpt><trkpt lat="46.0527904763894" lon="10.037339224783116"><ele>1258.0</ele><time>2026-04-06T12:47:03.001Z</time></trkpt><trkpt lat="46.05273174246193" lon="10.037283957877168"><ele>1258.0</ele><time>2026-04-06T12:47:13Z</time></trkpt><trkpt lat="46.05267926660624" lon="10.037228851427619"><ele>1258.0</ele><time>2026-04-06T12:47:33Z</time></trkpt><trkpt lat="46.052628886218244" lon="10.037171232209621"><ele>1258.0</ele><time>2026-04-06T12:47:40Z</time></trkpt><trkpt lat="46.05257838124605" lon="10.037094478299213"><ele>1258.0</ele><time>2026-04-06T12:47:47Z</time></trkpt><trkpt lat="46.0525241002011" lon="10.037039593633816"><ele>1258.0</ele><time>2026-04-06T12:47:54Z</time></trkpt><trkpt lat="46.05246054176188" lon="10.037024782614242"><ele>1258.0</ele><time>2026-04-06T12:48:03Z</time></trkpt><trkpt lat="46.052396599831845" lon="10.036998710961115"><ele>1258.0</ele><time>2026-04-06T12:48:09Z</time></trkpt><trkpt lat="46.05244898633856" lon="10.036926473603122"><ele>1258.0</ele><time>2026-04-06T12:48:24Z</time></trkpt><trkpt lat="46.05248719560977" lon="10.03684334354517"><ele>1258.0</ele><time>2026-04-06T12:48:30Z</time></trkpt><trkpt lat="46.05244543437713" lon="10.036773542685129"><ele>1258.0</ele><time>2026-04-06T12:48:40Z</time></trkpt><trkpt lat="46.05237641531782" lon="10.03678310874534"><ele>1258.0</ele><time>2026-04-06T12:48:46.999Z</time></trkpt><trkpt lat="46.052310076359504" lon="10.036771488304057"><ele>1255.142857142857</ele><time>2026-04-06T12:48:53.999Z</time></trkpt><trkpt lat="46.05232218421137" lon="10.036677580642225"><ele>1252.2857142857144</ele><time>2026-04-06T12:49:07.999Z</time></trkpt><trkpt lat="46.05236998536519" lon="10.036605335049769"><ele>1249.4285714285716</ele><time>2026-04-06T12:49:16Z</time></trkpt><trkpt lat="46.05238410960872" lon="10.036513024464853"><ele>1246.5714285714284</ele><time>2026-04-06T12:49:24Z</time></trkpt><trkpt lat="46.05243472946114" lon="10.036457769204564"><ele>1243.7142857142858</ele><time>2026-04-06T12:49:30Z</time></trkpt><trkpt lat="46.05245507866019" lon="10.036369841201227"><ele>1240.857142857143</ele><time>2026-04-06T12:49:36Z</time></trkpt><trkpt lat="46.05240670038361" lon="10.036310444416545"><ele>1238.0</ele><time>2026-04-06T12:49:42Z</time></trkpt><trkpt lat="46.0523423429204" lon="10.03634724833623"><ele>1238.0</ele><time>2026-04-06T12:49:55Z</time></trkpt><trkpt lat="46.05227777488899" lon="10.036345137260097"><ele>1238.0</ele><time>2026-04-06T12:50:02Z</time></trkpt><trkpt lat="46.05221511097677" lon="10.036303907380146"><ele>1238.0</ele><time>2026-04-06T12:50:15Z</time></trkpt><trkpt lat="46.05224118016018" lon="10.036218360684785"><ele>1238.0</ele><time>2026-04-06T12:50:22Z</time></trkpt><trkpt lat="46.05230131446992" lon="10.03618057177916"><ele>1238.0</ele><time>2026-04-06T12:50:32Z</time></trkpt><trkpt lat="46.05234821604775" lon="10.036097167997594"><ele>1238.0</ele><time>2026-04-06T12:50:39.999Z</time></trkpt><trkpt lat="46.052387801046386" lon="10.036018215849783"><ele>1238.0</ele><time>2026-04-06T12:50:48.999Z</time></trkpt><trkpt lat="46.052415817140634" lon="10.035923451241159"><ele>1237.5714285714284</ele><time>2026-04-06T12:50:59.999Z</time></trkpt><trkpt lat="46.05245916268384" lon="10.035853796448603"><ele>1237.142857142857</ele><time>2026-04-06T12:51:08.999Z</time></trkpt><trkpt lat="46.052503786471895" lon="10.035787713701179"><ele>1236.7142857142858</ele><time>2026-04-06T12:51:17Z</time></trkpt><trkpt lat="46.052456363654926" lon="10.035720568945104"><ele>1236.2857142857142</ele><time>2026-04-06T12:51:31Z</time></trkpt><trkpt lat="46.05239130514025" lon="10.035699457404593"><ele>1235.857142857143</ele><time>2026-04-06T12:51:39Z</time></trkpt><trkpt lat="46.05232038141319" lon="10.03567010007528"><ele>1235.4285714285713</ele><time>2026-04-06T12:51:47Z</time></trkpt><trkpt lat="46.052272924479894" lon="10.035575780200173"><ele>1235.0</ele><time>2026-04-06T12:52:06Z</time></trkpt><trkpt lat="46.05221027229427" lon="10.035518195511472"><ele>1231.4285714285713</ele><time>2026-04-06T12:52:13Z</time></trkpt><trkpt lat="46.05215074673589" lon="10.035481691787712"><ele>1227.857142857143</ele><time>2026-04-06T12:52:19Z</time></trkpt><trkpt lat="46.05208991179911" lon="10.035450518420435"><ele>1224.2857142857142</ele><time>2026-04-06T12:52:25Z</time></trkpt><trkpt lat="46.05202347876318" lon="10.03543668468377"><ele>1220.7142857142858</ele><time>2026-04-06T12:52:32Z</time></trkpt><trkpt lat="46.05195801865645" lon="10.03539945907589"><ele>1217.142857142857</ele><time>2026-04-06T12:52:40.999Z</time></trkpt><trkpt lat="46.051893728869096" lon="10.03537407269752"><ele>1213.5714285714284</ele><time>2026-04-06T12:52:50.999Z</time></trkpt><trkpt lat="46.051842905886545" lon="10.035314845335792"><ele>1210.0</ele><time>2026-04-06T12:53:00.999Z</time></trkpt><trkpt lat="46.051783520675656" lon="10.035279538036528"><ele>1210.0</ele><time>2026-04-06T12:53:07.999Z</time></trkpt><trkpt lat="46.05172408746938" lon="10.035243813736649"><ele>1210.0</ele><time>2026-04-06T12:53:15.999Z</time></trkpt><trkpt lat="46.051661382329804" lon="10.035210946507927"><ele>1210.0</ele><time>2026-04-06T12:53:37Z</time></trkpt><trkpt lat="46.0515962568345" lon="10.035169302720512"><ele>1210.0</ele><time>2026-04-06T12:53:47Z</time></trkpt><trkpt lat="46.05154933813086" lon="10.035097450845646"><ele>1210.0</ele><time>2026-04-06T12:53:53Z</time></trkpt><trkpt lat="46.05152297342438" lon="10.034997622088822"><ele>1210.0</ele><time>2026-04-06T12:54:00Z</time></trkpt><trkpt lat="46.05150114341175" lon="10.034909478903685"><ele>1210.0</ele><time>2026-04-06T12:54:07Z</time></trkpt><trkpt lat="46.05149542655414" lon="10.034812107305642"><ele>1212.0</ele><time>2026-04-06T12:54:13Z</time></trkpt><trkpt lat="46.051508062953076" lon="10.034722910207277"><ele>1214.0</ele><time>2026-04-06T12:54:20Z</time></trkpt><trkpt lat="46.051510777421726" lon="10.034616196559973"><ele>1216.0</ele><time>2026-04-06T12:54:27Z</time></trkpt><trkpt lat="46.05145068894702" lon="10.03455467219832"><ele>1218.0</ele><time>2026-04-06T12:54:33Z</time></trkpt><trkpt lat="46.051432472854415" lon="10.034462816269476"><ele>1220.0</ele><time>2026-04-06T12:54:38Z</time></trkpt><trkpt lat="46.05140549672749" lon="10.034368481496687"><ele>1222.0</ele><time>2026-04-06T12:54:44.999Z</time></trkpt><trkpt lat="46.05137158101472" lon="10.034281973338935"><ele>1224.0</ele><time>2026-04-06T12:54:50.999Z</time></trkpt><trkpt lat="46.051414129034" lon="10.034189941228117"><ele>1224.0</ele><time>2026-04-06T12:55:08.999Z</time></trkpt><trkpt lat="46.051483303630164" lon="10.034188958787219"><ele>1224.0</ele><time>2026-04-06T12:55:15.999Z</time></trkpt><trkpt lat="46.05154798346451" lon="10.034225243246043"><ele>1224.0</ele><time>2026-04-06T12:55:23.999Z</time></trkpt><trkpt lat="46.0516101910989" lon="10.034269751024041"><ele>1224.0</ele><time>2026-04-06T12:55:31Z</time></trkpt><trkpt lat="46.051545252949516" lon="10.034245730397595"><ele>1224.0</ele><time>2026-04-06T14:08:56Z</time></trkpt><trkpt lat="46.05149677180862" lon="10.034184904041542"><ele>1224.0</ele><time>2026-04-06T14:09:05Z</time></trkpt><trkpt lat="46.05142874219061" lon="10.034168055064258"><ele>1224.0</ele><time>2026-04-06T14:11:03Z</time></trkpt><trkpt lat="46.05134769615906" lon="10.034133709223182"><ele>1222.0</ele><time>2026-04-06T14:11:09Z</time></trkpt><trkpt lat="46.05128359009925" lon="10.034096822792677"><ele>1220.0</ele><time>2026-04-06T14:11:19Z</time></trkpt><trkpt lat="46.051263509791006" lon="10.03399960382075"><ele>1218.0</ele><time>2026-04-06T14:11:27Z</time></trkpt><trkpt lat="46.0512133850602" lon="10.033926827604196"><ele>1216.0</ele><time>2026-04-06T14:11:31Z</time></trkpt><trkpt lat="46.05117068316938" lon="10.033855960905797"><ele>1214.0</ele><time>2026-04-06T14:11:37Z</time></trkpt><trkpt lat="46.051131931644434" lon="10.033762759192014"><ele>1212.0</ele><time>2026-04-06T14:11:42Z</time></trkpt><trkpt lat="46.0511182299448" lon="10.033673508194399"><ele>1210.0</ele><time>2026-04-06T14:11:49Z</time></trkpt><trkpt lat="46.051068713920834" lon="10.033614590129476"><ele>1210.0</ele><time>2026-04-06T14:11:54.999Z</time></trkpt><trkpt lat="46.0510640378679" lon="10.03351746040637"><ele>1210.0</ele><time>2026-04-06T14:12:00.999Z</time></trkpt><trkpt lat="46.05106247859466" lon="10.033417155638846"><ele>1210.0</ele><time>2026-04-06T14:12:08.999Z</time></trkpt><trkpt lat="46.05104487160693" lon="10.033312653775443"><ele>1210.0</ele><time>2026-04-06T14:12:14.999Z</time></trkpt><trkpt lat="46.0510181670478" lon="10.033216795131937"><ele>1210.0</ele><time>2026-04-06T14:12:20.999Z</time></trkpt><trkpt lat="46.050998652555606" lon="10.033113420108569"><ele>1210.0</ele><time>2026-04-06T14:12:28.999Z</time></trkpt><trkpt lat="46.051050223669634" lon="10.0330508533702"><ele>1210.0</ele><time>2026-04-06T14:12:46.999Z</time></trkpt><trkpt lat="46.05105768840218" lon="10.032959493363743"><ele>1208.857142857143</ele><time>2026-04-06T14:12:52.999Z</time></trkpt><trkpt lat="46.051102335065025" lon="10.03288993091141"><ele>1207.7142857142858</ele><time>2026-04-06T14:12:58.999Z</time></trkpt><trkpt lat="46.05116678649102" lon="10.032871345717869"><ele>1206.5714285714284</ele><time>2026-04-06T14:13:09Z</time></trkpt><trkpt lat="46.05121227990592" lon="10.032804190849165"><ele>1205.4285714285716</ele><time>2026-04-06T14:13:15Z</time></trkpt><trkpt lat="46.051259539124146" lon="10.032731619916776"><ele>1204.2857142857144</ele><time>2026-04-06T14:13:22Z</time></trkpt><trkpt lat="46.05123702275622" lon="10.032644358890616"><ele>1203.142857142857</ele><time>2026-04-06T14:13:29Z</time></trkpt><trkpt lat="46.0511970599216" lon="10.032557590137072"><ele>1202.0</ele><time>2026-04-06T14:13:38.999Z</time></trkpt><trkpt lat="46.05114059701734" lon="10.032504608022528"><ele>1199.857142857143</ele><time>2026-04-06T14:13:44.999Z</time></trkpt><trkpt lat="46.051115411113564" lon="10.032407255730233"><ele>1197.7142857142858</ele><time>2026-04-06T14:13:50.999Z</time></trkpt><trkpt lat="46.05104649897655" lon="10.032412938208333"><ele>1195.5714285714287</ele><time>2026-04-06T14:14:10.999Z</time></trkpt><trkpt lat="46.050976494221395" lon="10.032449264990419"><ele>1193.4285714285716</ele><time>2026-04-06T14:14:30.999Z</time></trkpt><trkpt lat="46.05092081835629" lon="10.032391564280962"><ele>1191.2857142857142</ele><time>2026-04-06T14:14:45.999Z</time></trkpt><trkpt lat="46.050920481334764" lon="10.032286931881217"><ele>1189.1428571428573</ele><time>2026-04-06T14:14:56.999Z</time></trkpt><trkpt lat="46.05091668850412" lon="10.03218981699636"><ele>1187.0</ele><time>2026-04-06T14:15:03.999Z</time></trkpt><trkpt lat="46.05095360395217" lon="10.032106507417165"><ele>1187.0000000000002</ele><time>2026-04-06T14:15:10.999Z</time></trkpt><trkpt lat="46.0509238726335" lon="10.032012991084557"><ele>1187.0</ele><time>2026-04-06T14:15:16.999Z</time></trkpt><trkpt lat="46.05090460808789" lon="10.03192327099115"><ele>1187.0</ele><time>2026-04-06T14:15:30.999Z</time></trkpt><trkpt lat="46.050862955516315" lon="10.031846601344242"><ele>1187.0</ele><time>2026-04-06T14:15:42.999Z</time></trkpt><trkpt lat="46.05080661948506" lon="10.03179542917545"><ele>1187.0</ele><time>2026-04-06T14:15:55.999Z</time></trkpt><trkpt lat="46.05077626041346" lon="10.031715297429761"><ele>1187.0000000000002</ele><time>2026-04-06T14:16:04.999Z</time></trkpt><trkpt lat="46.05079522875714" lon="10.031619963657919"><ele>1187.0</ele><time>2026-04-06T14:16:13.999Z</time></trkpt><trkpt lat="46.050822260811145" lon="10.031530683119081"><ele>1181.0</ele><time>2026-04-06T14:16:32.999Z</time></trkpt><trkpt lat="46.05087866135161" lon="10.031591776926266"><ele>1181.0</ele><time>2026-04-06T14:16:40.999Z</time></trkpt><trkpt lat="46.05094643839875" lon="10.031567573847553"><ele>1181.0</ele><time>2026-04-06T14:16:50.999Z</time></trkpt><trkpt lat="46.05100255973433" lon="10.031517756577571"><ele>1181.0</ele><time>2026-04-06T14:16:55.999Z</time></trkpt></trkseg></trk></gpx>